Time;durP1;ratioP1;P1;durP2;ratioP2;P2;SDS_P1;SDS_P2;PMS_P1;PMS_P2;Temp;Humidity;BMP_temperature;BMP_pressure;BME280_temperature;BME280_humidity;BME280_pressure;Samples;Min_cycle;Max_cycle;Signal;HPM_P1;HPM_P2
2023/12/31 00:01:11;;;;;;;3.80;1.23;;;;;;;-145.18;100.00;46998.34;5087491;28;20032;-73
2023/12/31 00:03:37;;;;;;;5.97;1.50;;;;;;;-145.18;100.00;46992.47;5091160;28;20040;-72
2023/12/31 00:06:02;;;;;;;3.07;1.33;;;;;;;-145.18;100.00;46986.63;5092194;28;20166;-72
2023/12/31 00:08:27;;;;;;;4.80;1.50;;;;;;;-145.18;100.00;46988.56;5081898;28;20048;-73
2023/12/31 00:10:53;;;;;;;3.10;0.93;;;;;;;-145.18;100.00;46984.66;5078702;28;20042;-73
2023/12/31 00:13:18;;;;;;;4.80;1.37;;;;;;;-145.18;100.00;46976.84;5082037;28;20107;-72
2023/12/31 00:15:44;;;;;;;3.33;1.20;;;;;;;-145.18;100.00;46974.91;5075711;28;20032;-73
2023/12/31 00:18:09;;;;;;;2.63;0.90;;;;;;;-145.18;100.00;46971.00;5074993;28;20037;-73
2023/12/31 00:20:34;;;;;;;4.07;1.07;;;;;;;-145.18;100.00;46965.13;5079720;28;20453;-72
2023/12/31 00:23:00;;;;;;;5.00;1.13;;;;;;;-145.18;100.00;46965.13;5090096;28;20123;-73
2023/12/31 00:25:25;;;;;;;4.47;1.20;;;;;;;-145.18;100.00;46963.19;5089824;28;20036;-73
2023/12/31 00:27:50;;;;;;;6.73;1.40;;;;;;;-145.18;100.00;46961.22;5086416;28;20054;-73
2023/12/31 00:30:16;;;;;;;4.03;1.40;;;;;;;-145.18;100.00;46957.31;5090829;28;20337;-73
2023/12/31 00:32:41;;;;;;;6.47;1.30;;;;;;;-145.18;100.00;46957.31;5060725;28;20110;-73
2023/12/31 00:35:07;;;;;;;7.53;1.77;;;;;;;-145.18;100.00;46953.41;5087320;28;20040;-73
2023/12/31 00:37:32;;;;;;;2.20;1.00;;;;;;;-145.18;100.00;46955.34;5090403;28;20397;-72
2023/12/31 00:39:58;;;;;;;3.53;1.00;;;;;;;-145.18;100.00;46951.44;5086212;28;20527;-73
2023/12/31 00:42:23;;;;;;;3.47;1.63;;;;;;;-145.18;100.00;46949.50;5074260;28;20044;-75
2023/12/31 00:44:48;;;;;;;2.43;1.00;;;;;;;-145.18;100.00;46947.53;5094210;28;20111;-74
2023/12/31 00:47:14;;;;;;;2.47;1.07;;;;;;;-145.18;100.00;46947.53;5080248;28;20476;-74
2023/12/31 00:49:39;;;;;;;4.30;1.30;;;;;;;-145.18;100.00;46945.59;5088479;28;20488;-74
2023/12/31 00:52:05;;;;;;;2.57;1.20;;;;;;;-145.18;100.00;46949.50;5079140;28;20123;-74
2023/12/31 00:54:31;;;;;;;2.03;0.90;;;;;;;-145.18;100.00;46939.72;5080343;28;20032;-74
2023/12/31 00:56:56;;;;;;;1.80;0.90;;;;;;;-145.18;100.00;46941.69;5091365;28;20304;-74
2023/12/31 00:59:21;;;;;;;2.33;1.00;;;;;;;-145.18;100.00;46935.81;5086564;28;20062;-74
2023/12/31 01:01:47;;;;;;;3.93;1.30;;;;;;;-145.18;100.00;46933.88;5082553;28;20490;-74
2023/12/31 01:04:13;;;;;;;5.53;1.30;;;;;;;-145.18;100.00;46929.97;5078581;28;20024;-74
2023/12/31 01:06:38;;;;;;;5.23;0.93;;;;;;;-145.18;100.00;46928.00;5085786;28;20661;-74
2023/12/31 01:09:05;;;;;;;1.47;0.80;;;;;;;-145.18;100.00;46928.00;5079219;28;20085;-74
2023/12/31 01:11:31;;;;;;;3.07;1.10;;;;;;;-145.18;100.00;46922.16;5085600;28;20032;-74
2023/12/31 01:13:56;;;;;;;1.83;0.90;;;;;;;-145.18;100.00;46926.06;5088158;28;20265;-74
2023/12/31 01:16:22;;;;;;;3.53;0.80;;;;;;;-145.18;100.00;46920.19;5075411;28;20107;-74
2023/12/31 01:18:47;;;;;;;6.70;1.27;;;;;;;-145.18;100.00;46918.25;5073473;28;20044;-74
2023/12/31 01:21:13;;;;;;;4.83;1.10;;;;;;;-145.18;100.00;46914.34;5086608;28;20036;-74
2023/12/31 01:23:38;;;;;;;5.43;1.27;;;;;;;-145.18;100.00;46914.34;5085633;28;20032;-74
2023/12/31 01:26:03;;;;;;;5.27;2.13;;;;;;;-145.18;100.00;46906.53;5086145;28;20066;-74
2023/12/31 01:28:29;;;;;;;3.37;1.07;;;;;;;-145.18;100.00;46904.56;5088717;28;20035;-74
2023/12/31 01:30:55;;;;;;;3.03;0.90;;;;;;;-145.18;100.00;46900.66;5089999;28;20088;-73
2023/12/31 01:33:20;;;;;;;3.77;0.90;;;;;;;-145.18;100.00;46900.66;5091600;28;20028;-73
2023/12/31 01:35:46;;;;;;;2.93;1.30;;;;;;;-145.18;100.00;46902.63;5092450;28;20084;-73
2023/12/31 01:38:11;;;;;;;2.23;0.93;;;;;;;-145.18;100.00;46900.66;5087536;28;20048;-73
2023/12/31 01:40:37;;;;;;;1.77;0.77;;;;;;;-145.18;100.00;46894.81;5089342;28;20490;-73
2023/12/31 01:43:02;;;;;;;3.67;1.00;;;;;;;-145.18;100.00;46896.75;5074678;28;20024;-73
2023/12/31 01:45:28;;;;;;;2.90;0.80;;;;;;;-145.18;100.00;46890.91;5074694;28;20020;-73
2023/12/31 01:47:54;;;;;;;3.80;1.17;;;;;;;-145.18;100.00;46887.00;5086736;28;20028;-73
2023/12/31 01:50:21;;;;;;;5.40;1.00;;;;;;;-145.18;100.00;46890.91;5083642;28;20016;-73
2023/12/31 01:52:47;;;;;;;3.20;1.53;;;;;;;-145.18;100.00;46885.03;5075408;28;20040;-71
2023/12/31 01:55:12;;;;;;;1.43;0.90;;;;;;;-145.18;100.00;46879.19;5074312;28;20846;-71
2023/12/31 01:57:40;;;;;;;3.57;1.20;;;;;;;-145.18;100.00;46877.22;5076771;28;20024;-71
2023/12/31 02:00:06;;;;;;;4.47;0.87;;;;;;;-145.18;100.00;46881.13;5087783;28;20032;-71
2023/12/31 02:02:32;;;;;;;2.50;0.80;;;;;;;-145.18;100.00;46881.13;5082950;28;20024;-71
2023/12/31 02:04:57;;;;;;;5.67;1.40;;;;;;;-145.18;100.00;46879.19;5087873;28;20728;-72
2023/12/31 02:07:23;;;;;;;3.17;1.17;;;;;;;-145.18;100.00;46875.28;5084907;28;20031;-71
2023/12/31 02:09:50;;;;;;;3.37;1.23;;;;;;;-145.18;100.00;46877.22;5086372;28;20024;-71
2023/12/31 02:12:15;;;;;;;4.00;1.17;;;;;;;-145.18;100.00;46879.19;5088077;28;20034;-71
2023/12/31 02:14:41;;;;;;;2.57;0.90;;;;;;;-145.18;100.00;46871.38;5091415;28;20289;-72
2023/12/31 02:17:06;;;;;;;4.70;1.00;;;;;;;-145.18;100.00;46875.28;5090535;28;20027;-71
2023/12/31 02:19:32;;;;;;;2.53;1.00;;;;;;;-145.18;100.00;46875.28;5090725;28;20024;-72
2023/12/31 02:21:58;;;;;;;3.00;1.33;;;;;;;-145.18;100.00;46881.13;5074106;28;20035;-71
2023/12/31 02:24:31;;;;;;;6.27;2.00;;;;;;;-145.18;100.00;46875.28;5079912;28;20028;-72
2023/12/31 02:26:57;;;;;;;6.60;2.47;;;;;;;-145.18;100.00;46879.19;5091718;28;20752;-72
2023/12/31 02:29:22;;;;;;;5.00;2.80;;;;;;;-145.18;100.00;46873.31;5089667;28;20274;-71
2023/12/31 02:31:48;;;;;;;6.77;3.33;;;;;;;-145.18;100.00;46877.22;5088226;28;20042;-72
2023/12/31 02:34:13;;;;;;;9.37;3.33;;;;;;;-145.18;100.00;46875.28;5090683;28;20384;-71
2023/12/31 02:36:38;;;;;;;8.40;3.60;;;;;;;-145.18;100.00;46875.28;5081699;28;20553;-71
2023/12/31 02:39:04;;;;;;;2.57;1.97;;;;;;;-145.18;100.00;46877.22;5071103;28;20131;-72
2023/12/31 02:41:32;;;;;;;3.20;1.57;;;;;;;-145.18;100.00;46877.22;5088741;28;20036;-71
2023/12/31 02:43:57;;;;;;;5.20;1.17;;;;;;;-145.18;100.00;46875.28;5083845;28;20085;-72
2023/12/31 02:46:23;;;;;;;1.80;1.07;;;;;;;-145.18;100.00;46881.13;5085917;28;20264;-72
2023/12/31 02:48:48;;;;;;;7.10;1.10;;;;;;;-145.18;100.00;46881.13;5083292;28;20059;-71
2023/12/31 02:51:14;;;;;;;6.33;1.30;;;;;;;-145.18;100.00;46881.13;5077084;28;20028;-72
2023/12/31 02:53:39;;;;;;;2.33;1.33;;;;;;;-145.18;100.00;46879.19;5086736;28;20028;-71
2023/12/31 02:56:05;;;;;;;3.80;1.10;;;;;;;-145.18;100.00;46879.19;5085612;28;20391;-71
2023/12/31 02:58:30;;;;;;;3.47;1.30;;;;;;;-145.18;100.00;46879.19;5076183;28;20032;-72
2023/12/31 03:00:55;;;;;;;2.13;0.97;;;;;;;-145.18;100.00;46881.13;5087730;28;20086;-71
2023/12/31 03:03:21;;;;;;;3.00;1.07;;;;;;;-145.18;100.00;46888.94;5071306;28;20036;-71
2023/12/31 03:05:46;;;;;;;1.73;1.00;;;;;;;-145.18;100.00;46883.09;5085054;28;20448;-71
2023/12/31 03:08:12;;;;;;;1.60;1.20;;;;;;;-145.18;100.00;46887.00;5082639;28;20085;-71
2023/12/31 03:10:37;;;;;;;3.50;1.53;;;;;;;-145.18;100.00;46887.00;5083430;28;20032;-71
2023/12/31 03:13:03;;;;;;;6.63;1.77;;;;;;;-145.18;100.00;46887.00;5079250;28;20035;-72
2023/12/31 03:15:28;;;;;;;2.07;1.33;;;;;;;-145.18;100.00;46888.94;5086959;28;20032;-72
2023/12/31 03:17:53;;;;;;;5.47;0.90;;;;;;;-145.18;100.00;46887.00;5084424;28;20064;-72
2023/12/31 03:20:19;;;;;;;2.13;1.13;;;;;;;-145.18;100.00;46888.94;5094121;28;20449;-71
2023/12/31 03:22:47;;;;;;;2.77;1.03;;;;;;;-145.18;100.00;46890.91;5080993;28;20135;-72
2023/12/31 03:25:13;;;;;;;5.70;1.03;;;;;;;-145.18;100.00;46890.91;5086486;28;20101;-72
2023/12/31 03:27:38;;;;;;;2.50;0.97;;;;;;;-145.18;100.00;46894.81;5085182;28;20371;-71
2023/12/31 03:30:05;;;;;;;2.53;1.40;;;;;;;-145.18;100.00;46896.75;5086653;28;20032;-71
2023/12/31 03:32:31;;;;;;;2.20;0.90;;;;;;;-145.18;100.00;46896.75;5091537;28;20028;-72
2023/12/31 03:34:56;;;;;;;2.70;1.37;;;;;;;-145.18;100.00;46896.75;5091185;28;20285;-71
2023/12/31 03:37:21;;;;;;;2.83;1.30;;;;;;;-145.18;100.00;46898.72;5088017;28;20076;-72
2023/12/31 03:39:47;;;;;;;4.13;1.40;;;;;;;-145.18;100.00;46898.72;5091496;28;20043;-71
2023/12/31 03:42:12;;;;;;;2.63;1.43;;;;;;;-145.18;100.00;46902.63;5091633;28;20050;-72
2023/12/31 03:44:37;;;;;;;4.57;1.17;;;;;;;-145.18;100.00;46900.66;5089787;28;20028;-71
2023/12/31 03:47:03;;;;;;;3.77;1.13;;;;;;;-145.18;100.00;46906.53;5088856;28;20420;-72
2023/12/31 03:49:28;;;;;;;2.13;1.10;;;;;;;-145.18;100.00;46904.56;5091172;28;20036;-71
2023/12/31 03:51:54;;;;;;;3.93;1.37;;;;;;;-145.18;100.00;46906.53;5076927;28;20047;-71
2023/12/31 03:54:19;;;;;;;4.33;1.33;;;;;;;-145.18;100.00;46906.53;5093592;28;20166;-72
2023/12/31 03:56:44;;;;;;;4.43;1.33;;;;;;;-145.18;100.00;46910.44;5094064;28;20036;-71
2023/12/31 03:59:10;;;;;;;4.13;1.40;;;;;;;-145.18;100.00;46910.44;5091197;28;20496;-71
2023/12/31 04:01:43;;;;;;;3.40;1.30;;;;;;;-145.18;100.00;46908.47;5092166;28;20040;-72
2023/12/31 04:04:08;;;;;;;2.73;1.50;;;;;;;-145.18;100.00;46910.44;5079123;28;20112;-72
2023/12/31 04:06:34;;;;;;;1.80;1.30;;;;;;;-145.18;100.00;46914.34;5079122;28;20352;-72
2023/12/31 04:08:59;;;;;;;2.40;1.23;;;;;;;-145.18;100.00;46910.44;5078106;28;20422;-72
2023/12/31 04:11:25;;;;;;;2.53;1.33;;;;;;;-145.18;100.00;46912.38;5090163;28;20055;-71
2023/12/31 04:13:50;;;;;;;1.83;1.13;;;;;;;-145.18;100.00;46918.25;5077032;28;20109;-71
2023/12/31 04:16:15;;;;;;;4.93;2.20;;;;;;;-145.18;100.00;46918.25;5090622;28;20028;-71
2023/12/31 04:18:41;;;;;;;3.13;1.30;;;;;;;-145.18;100.00;46918.25;5084837;28;20093;-72
2023/12/31 04:21:06;;;;;;;3.20;1.20;;;;;;;-145.18;100.00;46916.28;5083644;28;20055;-72
2023/12/31 04:23:31;;;;;;;2.33;1.30;;;;;;;-145.18;100.00;46914.34;5086216;28;20089;-72
2023/12/31 04:25:57;;;;;;;4.10;1.50;;;;;;;-145.18;100.00;46914.34;5086720;28;20028;-72
2023/12/31 04:28:22;;;;;;;3.63;1.60;;;;;;;-145.18;100.00;46916.28;5087398;28;20459;-72
2023/12/31 04:30:47;;;;;;;2.37;1.37;;;;;;;-145.18;100.00;46916.28;5082313;28;20034;-72
2023/12/31 04:33:13;;;;;;;4.43;1.40;;;;;;;-145.18;100.00;46914.34;5093889;28;20109;-72
2023/12/31 04:35:38;;;;;;;2.77;1.40;;;;;;;-145.18;100.00;46916.28;5091556;28;20089;-71
2023/12/31 04:38:04;;;;;;;4.90;1.20;;;;;;;-145.18;100.00;46918.25;5073810;28;20048;-71
2023/12/31 04:40:29;;;;;;;3.50;1.70;;;;;;;-145.18;100.00;46918.25;5090904;28;20066;-71
2023/12/31 04:42:54;;;;;;;3.93;1.43;;;;;;;-145.18;100.00;46916.28;5091754;28;20036;-72
2023/12/31 04:45:20;;;;;;;2.93;1.40;;;;;;;-145.18;100.00;46916.28;5086540;28;20041;-71
2023/12/31 04:47:45;;;;;;;2.63;1.47;;;;;;;-145.18;100.00;46914.34;5087652;28;20093;-71
2023/12/31 04:50:10;;;;;;;4.13;1.20;;;;;;;-145.18;100.00;46918.25;5093630;28;20035;-72
2023/12/31 04:52:36;;;;;;;2.83;1.40;;;;;;;-145.18;100.00;46914.34;5091177;28;20028;-72
2023/12/31 04:55:01;;;;;;;4.40;1.33;;;;;;;-145.18;100.00;46918.25;5090718;28;20396;-71
2023/12/31 04:57:27;;;;;;;3.90;1.30;;;;;;;-145.18;100.00;46916.28;5091670;28;20054;-72
2023/12/31 04:59:52;;;;;;;3.77;1.43;;;;;;;-145.18;100.00;46910.44;5092373;28;20066;-72
2023/12/31 05:02:17;;;;;;;3.13;1.33;;;;;;;-145.18;100.00;46910.44;5078749;28;20503;-71
2023/12/31 05:04:43;;;;;;;4.23;1.30;;;;;;;-145.18;100.00;46912.38;5083910;28;20113;-72
2023/12/31 05:07:09;;;;;;;2.47;1.30;;;;;;;-145.18;100.00;46908.47;5082266;28;20033;-71
2023/12/31 05:09:35;;;;;;;2.60;1.50;;;;;;;-145.18;100.00;46904.56;5080253;28;20506;-71
2023/12/31 05:12:01;;;;;;;2.77;1.60;;;;;;;-145.18;100.00;46904.56;5084887;28;20264;-72
2023/12/31 05:14:26;;;;;;;2.93;1.40;;;;;;;-145.18;100.00;46906.53;5086485;28;20279;-71
2023/12/31 05:16:51;;;;;;;4.27;1.60;;;;;;;-145.18;100.00;46904.56;5074663;28;20043;-71
2023/12/31 05:19:17;;;;;;;2.33;1.37;;;;;;;-145.18;100.00;46900.66;5082581;28;20028;-72
2023/12/31 05:21:42;;;;;;;2.83;1.70;;;;;;;-145.18;100.00;46902.63;5084325;28;20028;-72
2023/12/31 05:24:08;;;;;;;6.30;1.70;;;;;;;-145.18;100.00;46896.75;5087756;28;20032;-72
2023/12/31 05:26:33;;;;;;;3.53;1.67;;;;;;;-145.18;100.00;46898.72;5091118;28;20063;-71
2023/12/31 05:28:58;;;;;;;3.23;1.43;;;;;;;-145.18;100.00;46892.84;5086585;28;20039;-72
2023/12/31 05:31:24;;;;;;;2.93;1.47;;;;;;;-145.18;100.00;46892.84;5083935;28;20451;-71
2023/12/31 05:33:49;;;;;;;4.80;1.80;;;;;;;-145.18;100.00;46890.91;5087186;28;20032;-71
2023/12/31 05:36:15;;;;;;;3.70;1.60;;;;;;;-145.18;100.00;46892.84;5085760;28;20032;-71
2023/12/31 05:38:40;;;;;;;3.37;1.50;;;;;;;-145.18;100.00;46888.94;5089356;28;20499;-71
2023/12/31 05:41:05;;;;;;;4.73;1.90;;;;;;;-145.18;100.00;46896.75;5089800;28;20537;-71
2023/12/31 05:43:31;;;;;;;5.60;1.60;;;;;;;-145.18;100.00;46888.94;5088898;28;20036;-71
2023/12/31 05:45:56;;;;;;;8.83;2.63;;;;;;;-145.18;100.00;46890.91;5083598;28;20051;-71
2023/12/31 05:48:21;;;;;;;3.60;2.07;;;;;;;-145.18;100.00;46894.81;5085124;28;20480;-71
2023/12/31 05:50:47;;;;;;;4.83;2.03;;;;;;;-145.18;100.00;46894.81;5089167;28;20110;-71
2023/12/31 05:53:13;;;;;;;3.70;1.50;;;;;;;-145.18;100.00;46888.94;5090342;28;20089;-71
2023/12/31 05:55:38;;;;;;;4.00;1.73;;;;;;;-145.18;100.00;46892.84;5079295;28;20103;-71
2023/12/31 05:58:04;;;;;;;3.93;1.97;;;;;;;-145.18;100.00;46890.91;5085871;28;20038;-71
2023/12/31 06:00:29;;;;;;;3.10;1.90;;;;;;;-145.18;100.00;46894.81;5086677;28;20153;-71
2023/12/31 06:02:55;;;;;;;3.37;1.87;;;;;;;-145.18;100.00;46888.94;5081522;28;20036;-71
2023/12/31 06:05:21;;;;;;;3.73;1.80;;;;;;;-145.18;100.00;46890.91;5083214;28;20040;-71
2023/12/31 06:07:46;;;;;;;3.50;2.00;;;;;;;-145.18;100.00;46892.84;5080245;28;20032;-71
2023/12/31 06:10:12;;;;;;;3.17;2.13;;;;;;;-145.18;100.00;46892.84;5089348;28;20151;-71
2023/12/31 06:12:37;;;;;;;2.37;1.70;;;;;;;-145.18;100.00;46888.94;5086768;28;20119;-71
2023/12/31 06:15:06;;;;;;;3.17;2.10;;;;;;;-145.18;100.00;46894.81;5091534;28;20381;-71
2023/12/31 06:17:38;;;;;;;2.97;1.60;;;;;;;-145.18;100.00;46896.75;5080370;28;20435;-71
2023/12/31 06:20:06;;;;;;;4.27;2.03;;;;;;;-145.18;100.00;46896.75;5085807;28;20089;-71
2023/12/31 06:22:32;;;;;;;3.53;1.77;;;;;;;-145.18;100.00;46900.66;5084092;28;20268;-72
2023/12/31 06:24:58;;;;;;;4.27;2.13;;;;;;;-145.18;100.00;46894.81;5085154;28;20256;-71
2023/12/31 06:27:24;;;;;;;4.47;2.27;;;;;;;-145.18;100.00;46890.91;5079591;28;20450;-71
2023/12/31 06:29:50;;;;;;;3.63;2.33;;;;;;;-145.18;100.00;46890.91;5078097;28;20063;-71
2023/12/31 06:32:19;;;;;;;2.70;1.90;;;;;;;-145.18;100.00;46894.81;5075099;28;20043;-72
2023/12/31 06:34:45;;;;;;;4.13;2.10;;;;;;;-145.18;100.00;46894.81;5076631;28;20031;-72
2023/12/31 06:37:11;;;;;;;3.57;1.87;;;;;;;-145.18;100.00;46887.00;5089610;28;20297;-73
2023/12/31 06:39:36;;;;;;;2.97;1.90;;;;;;;-145.18;100.00;46890.91;5085765;28;20040;-72
2023/12/31 06:42:01;;;;;;;5.23;2.30;;;;;;;-145.18;100.00;46888.94;5085968;28;20028;-72
2023/12/31 06:44:29;;;;;;;5.77;2.40;;;;;;;-145.18;100.00;46890.91;5085162;28;20047;-72
2023/12/31 06:46:54;;;;;;;2.67;1.80;;;;;;;-145.18;100.00;46888.94;5079392;28;20028;-72
2023/12/31 06:49:20;;;;;;;4.23;1.80;;;;;;;-145.18;100.00;46885.03;5086044;28;20276;-72
2023/12/31 06:51:45;;;;;;;3.37;1.77;;;;;;;-145.18;100.00;46887.00;5085890;28;20045;-72
2023/12/31 06:54:11;;;;;;;3.70;2.10;;;;;;;-145.18;100.00;46885.03;5085741;28;20372;-73
2023/12/31 06:56:36;;;;;;;2.57;1.67;;;;;;;-145.18;100.00;46887.00;5091482;28;20028;-72
2023/12/31 06:59:02;;;;;;;3.00;2.10;;;;;;;-145.18;100.00;46883.09;5091573;28;20063;-72
2023/12/31 07:01:28;;;;;;;3.33;2.27;;;;;;;-145.18;100.00;46883.09;5087700;28;20028;-72
2023/12/31 07:03:53;;;;;;;2.93;1.80;;;;;;;-145.18;100.00;46881.13;5090079;28;20043;-72
2023/12/31 07:06:19;;;;;;;2.83;1.60;;;;;;;-145.18;100.00;46879.19;5088132;28;20361;-73
2023/12/31 07:08:44;;;;;;;3.43;2.23;;;;;;;-145.18;100.00;46875.28;5081936;28;20032;-72
2023/12/31 07:11:10;;;;;;;2.87;1.77;;;;;;;-145.18;100.00;46875.28;5084083;28;20036;-72
2023/12/31 07:13:36;;;;;;;2.57;1.70;;;;;;;-145.18;100.00;46879.19;5090924;28;20116;-73
2023/12/31 07:16:02;;;;;;;3.90;1.67;;;;;;;-145.18;100.00;46875.28;5089959;28;20106;-72
2023/12/31 07:18:27;;;;;;;2.97;1.80;;;;;;;-145.18;100.00;46879.19;5085456;28;20047;-72
2023/12/31 07:20:54;;;;;;;2.90;1.87;;;;;;;-145.18;100.00;46879.19;5082270;28;20476;-72
2023/12/31 07:23:20;;;;;;;10.33;2.40;;;;;;;-145.18;100.00;46881.13;5076635;28;20086;-73
2023/12/31 07:25:45;;;;;;;3.10;1.90;;;;;;;-145.18;100.00;46881.13;5082094;28;20028;-72
2023/12/31 07:28:11;;;;;;;3.00;1.70;;;;;;;-145.18;100.00;46885.03;5081935;28;20036;-73
2023/12/31 07:30:36;;;;;;;2.40;1.23;;;;;;;-145.18;100.00;46883.09;5073680;28;20039;-73
2023/12/31 07:33:02;;;;;;;3.40;1.93;;;;;;;-145.18;100.00;46885.03;5075312;28;20127;-73
2023/12/31 07:35:27;;;;;;;2.73;1.80;;;;;;;-145.18;100.00;46885.03;5072943;28;20040;-74
2023/12/31 07:37:53;;;;;;;3.37;1.70;;;;;;;-145.18;100.00;46887.00;5076046;28;20520;-73
2023/12/31 07:40:18;;;;;;;3.17;1.63;;;;;;;-145.18;100.00;46888.94;5076685;28;20040;-73
2023/12/31 07:42:43;;;;;;;3.20;1.90;;;;;;;-145.18;100.00;46890.91;5078384;28;20447;-73
2023/12/31 07:45:09;;;;;;;3.13;1.60;;;;;;;-145.18;100.00;46892.84;5078776;28;20029;-71
2023/12/31 07:47:39;;;;;;;3.37;1.40;;;;;;;-145.18;100.00;46888.94;5078453;28;20041;-72
2023/12/31 07:50:07;;;;;;;3.07;1.97;;;;;;;-145.18;100.00;46892.84;5078626;28;20021;-71
2023/12/31 07:52:33;;;;;;;4.43;1.80;;;;;;;-145.18;100.00;46892.84;5078276;28;20068;-71
2023/12/31 07:54:59;;;;;;;3.93;1.93;;;;;;;-145.18;100.00;46892.84;5077051;28;20041;-71
2023/12/31 07:57:24;;;;;;;5.40;1.50;;;;;;;-145.18;100.00;46894.81;5078252;28;20068;-71
2023/12/31 07:59:49;;;;;;;2.53;1.77;;;;;;;-145.18;100.00;46898.72;5078595;28;20036;-71
2023/12/31 08:02:15;;;;;;;3.40;1.80;;;;;;;-145.18;100.00;46894.81;5080447;28;20229;-71
2023/12/31 08:04:40;;;;;;;3.60;1.70;;;;;;;-145.18;100.00;46896.75;5082011;28;20028;-71
2023/12/31 08:07:06;;;;;;;2.97;1.60;;;;;;;-145.18;100.00;46898.72;5083539;28;20036;-70
2023/12/31 08:09:31;;;;;;;3.57;2.00;;;;;;;-145.18;100.00;46896.75;5080941;28;20039;-71
2023/12/31 08:11:57;;;;;;;3.47;1.80;;;;;;;-145.18;100.00;46900.66;5083335;28;20494;-71
2023/12/31 08:14:22;;;;;;;3.17;2.00;;;;;;;-145.18;100.00;46900.66;5083347;28;20040;-70
2023/12/31 08:16:48;;;;;;;3.23;1.70;;;;;;;-145.18;100.00;46904.56;5081211;28;20071;-71
2023/12/31 08:19:14;;;;;;;2.90;1.77;;;;;;;-145.18;100.00;46902.63;5081698;28;20039;-72
2023/12/31 08:21:40;;;;;;;2.93;1.57;;;;;;;-145.18;100.00;46912.38;5081692;28;20794;-71
2023/12/31 08:24:06;;;;;;;3.23;1.83;;;;;;;-145.18;100.00;46910.44;5083352;28;20910;-71
2023/12/31 08:26:31;;;;;;;2.87;1.73;;;;;;;-145.18;100.00;46918.25;5081651;28;20036;-71
2023/12/31 08:28:58;;;;;;;2.17;1.50;;;;;;;-145.18;100.00;46920.19;5083017;28;20036;-71
2023/12/31 08:31:23;;;;;;;3.20;1.90;;;;;;;-145.18;100.00;46922.16;5083352;28;20059;-71
2023/12/31 08:33:48;;;;;;;3.37;1.80;;;;;;;-145.18;100.00;46931.91;5082145;28;20799;-72
2023/12/31 08:36:14;;;;;;;3.30;1.80;;;;;;;-145.18;100.00;46931.91;5076879;28;20041;-72
2023/12/31 08:38:39;;;;;;;3.10;1.80;;;;;;;-145.18;100.00;46933.88;5081070;28;20424;-71
2023/12/31 08:41:05;;;;;;;3.30;1.63;;;;;;;-145.18;100.00;46931.91;5086047;28;20031;-71
2023/12/31 08:43:31;;;;;;;3.27;1.70;;;;;;;-145.18;100.00;46935.81;5080460;28;20035;-72
2023/12/31 08:45:56;;;;;;;4.27;1.77;;;;;;;-145.18;100.00;46941.69;5090188;28;20020;-71
2023/12/31 08:48:22;;;;;;;2.57;1.73;;;;;;;-145.18;100.00;46945.59;5084713;28;20378;-71
2023/12/31 08:50:47;;;;;;;4.47;2.00;;;;;;;-145.18;100.00;46943.63;5086813;28;20059;-71
2023/12/31 08:53:13;;;;;;;3.93;2.17;;;;;;;-145.18;100.00;46953.41;5085820;28;20040;-74
2023/12/31 08:55:39;;;;;;;3.03;2.03;;;;;;;-145.18;100.00;46961.22;5082844;28;20055;-75
2023/12/31 08:58:04;;;;;;;5.43;1.00;;;;;;;-145.18;100.00;46957.31;5089260;28;20119;-74
2023/12/31 09:00:33;;;;;;;3.73;0.80;;;;;;;-145.18;100.00;46957.31;5081101;28;20539;-75
2023/12/31 09:02:58;;;;;;;1.80;0.60;;;;;;;-145.18;100.00;46955.34;5075420;28;20054;-74
2023/12/31 09:05:24;;;;;;;0.73;0.30;;;;;;;-145.18;100.00;46957.31;5086841;28;20277;-74
2023/12/31 09:07:49;;;;;;;1.37;0.50;;;;;;;-145.18;100.00;46957.31;5088008;28;20040;-74
2023/12/31 09:10:15;;;;;;;1.50;0.40;;;;;;;-145.18;100.00;46961.22;5087992;28;20071;-73
2023/12/31 09:12:40;;;;;;;2.50;0.50;;;;;;;-145.18;100.00;46955.34;5079479;28;20133;-74
2023/12/31 09:15:07;;;;;;;1.27;0.60;;;;;;;-145.18;100.00;46961.22;5087574;28;20032;-75
2023/12/31 09:17:33;;;;;;;1.27;0.80;;;;;;;-145.18;100.00;46969.03;5076679;28;20039;-75
2023/12/31 09:19:58;;;;;;;2.80;0.60;;;;;;;-145.18;100.00;46974.91;5084200;28;20289;-75
2023/12/31 09:22:24;;;;;;;1.03;0.70;;;;;;;-145.18;100.00;46978.81;5075793;28;20068;-75
2023/12/31 09:24:51;;;;;;;3.07;0.80;;;;;;;-145.18;100.00;46974.91;5082361;28;20036;-75
2023/12/31 09:27:18;;;;;;;1.43;0.77;;;;;;;-145.18;100.00;46984.66;5090901;28;20035;-75
2023/12/31 09:29:43;;;;;;;3.13;0.73;;;;;;;-145.18;100.00;46982.72;5080292;28;20292;-75
2023/12/31 09:32:09;;;;;;;1.17;0.57;;;;;;;-145.18;100.00;46982.72;5085128;28;20319;-74
2023/12/31 09:34:34;;;;;;;3.73;0.80;;;;;;;-145.18;100.00;46982.72;5087139;28;20047;-74
2023/12/31 09:37:00;;;;;;;1.10;0.77;;;;;;;-145.18;100.00;46980.75;5081627;28;20971;-74
2023/12/31 09:39:25;;;;;;;1.97;0.70;;;;;;;-145.18;100.00;46972.94;5076551;28;20032;-73
2023/12/31 09:41:53;;;;;;;2.63;1.00;;;;;;;-145.18;100.00;46976.84;5079732;28;20081;-73
2023/12/31 09:44:19;;;;;;;3.20;0.60;;;;;;;-145.18;100.00;46974.91;5084689;28;20024;-73
2023/12/31 09:47:10;;;;;;;1.70;0.70;;;;;;;-145.18;100.00;46971.00;5075135;28;20257;-73
2023/12/31 09:49:37;;;;;;;3.20;0.50;;;;;;;-145.18;100.00;46971.00;5074836;28;20036;-73
2023/12/31 09:52:04;;;;;;;1.73;0.70;;;;;;;-145.18;100.00;46971.00;5088171;28;20736;-72
2023/12/31 09:54:36;;;;;;;2.60;0.70;;;;;;;-145.18;100.00;46972.94;5091559;28;20280;-72
2023/12/31 09:57:01;;;;;;;3.23;0.63;;;;;;;-145.18;100.00;46967.09;5091104;28;20355;-72
2023/12/31 09:59:28;;;;;;;1.37;0.70;;;;;;;-145.18;100.00;46965.13;5073323;28;20352;-73
2023/12/31 10:01:57;;;;;;;2.60;0.80;;;;;;;-145.18;100.00;46965.13;5064547;28;20107;-72
2023/12/31 10:04:23;;;;;;;3.87;1.57;;;;;;;-145.18;100.00;46959.25;5073775;28;20261;-72
2023/12/31 10:06:50;;;;;;;0.80;0.60;;;;;;;-145.18;100.00;46957.31;5081914;28;20024;-71
2023/12/31 10:09:19;;;;;;;3.80;1.20;;;;;;;-145.18;100.00;46949.50;5080969;28;20089;-72
2023/12/31 10:11:45;;;;;;;1.60;0.60;;;;;;;-145.18;100.00;46953.41;5086285;28;20264;-71
2023/12/31 10:14:11;;;;;;;1.93;0.73;;;;;;;-145.18;100.00;46951.44;5082258;28;20284;-72
2023/12/31 10:16:40;;;;;;;2.23;0.80;;;;;;;-145.18;100.00;46949.50;5089024;28;20024;-72
2023/12/31 10:19:07;;;;;;;1.47;0.60;;;;;;;-145.18;100.00;46945.59;5081346;28;20261;-71
2023/12/31 10:21:33;;;;;;;2.57;0.77;;;;;;;-145.18;100.00;46945.59;5089091;28;20731;-71
2023/12/31 10:23:58;;;;;;;3.00;1.00;;;;;;;-145.18;100.00;46945.59;5087296;28;20331;-72
2023/12/31 10:26:24;;;;;;;1.90;0.97;;;;;;;-145.18;100.00;46941.69;5090278;28;20437;-72
2023/12/31 10:28:50;;;;;;;1.63;0.97;;;;;;;-145.18;100.00;46943.63;5088131;28;20039;-71
2023/12/31 10:31:15;;;;;;;2.23;0.70;;;;;;;-145.18;100.00;46945.59;5078237;28;20062;-72
2023/12/31 10:33:40;;;;;;;3.83;0.73;;;;;;;-145.18;100.00;46945.59;5086526;28;20035;-72
2023/12/31 10:36:07;;;;;;;4.23;0.97;;;;;;;-145.18;100.00;46949.50;5084068;28;20025;-71
2023/12/31 10:38:45;;;;;;;4.73;0.90;;;;;;;-145.18;100.00;46947.53;5083709;28;20411;-71
2023/12/31 10:41:17;;;;;;;2.87;0.70;;;;;;;-145.18;100.00;46953.41;5082592;28;20268;-71
2023/12/31 10:43:44;;;;;;;2.83;0.83;;;;;;;-145.18;100.00;46957.31;5074337;28;20269;-72
2023/12/31 10:46:13;;;;;;;4.53;0.93;;;;;;;-145.18;100.00;46959.25;5077904;28;20625;-72
2023/12/31 10:48:50;;;;;;;2.07;0.90;;;;;;;-145.18;100.00;46963.19;5077537;28;20257;-71
2023/12/31 10:51:23;;;;;;;6.33;0.90;;;;;;;-145.18;100.00;46961.22;5089707;28;20313;-71
2023/12/31 10:53:51;;;;;;;1.93;0.77;;;;;;;-145.18;100.00;46957.31;5086760;28;20264;-72
2023/12/31 10:56:18;;;;;;;2.40;1.13;;;;;;;-145.18;100.00;46959.25;5087174;28;20291;-72
2023/12/31 10:58:45;;;;;;;8.30;0.90;;;;;;;-145.18;100.00;46949.50;5078746;28;20262;-72
2023/12/31 11:01:11;;;;;;;2.13;0.60;;;;;;;-145.18;100.00;46941.69;5082714;28;20798;-71
2023/12/31 11:03:38;;;;;;;0.73;0.47;;;;;;;-145.18;100.00;46922.16;5084250;28;20356;-71